Time;durP1;ratioP1;P1;durP2;ratioP2;P2;SDS_P1;SDS_P2;PMS_P1;PMS_P2;Temp;Humidity;BMP_temperature;BMP_pressure;BME280_temperature;BME280_humidity;BME280_pressure;Samples;Min_cycle;Max_cycle;Signal;HPM_P1;HPM_P2
2023/10/21 00:00:50;;;;;;;46.92;15.23;;;;;;;7.91;100.00;98289.03;6121867;28;20028;-71
2023/10/21 00:03:46;;;;;;;59.67;16.50;;;;;;;7.91;100.00;98281.09;6122194;28;20033;-72
2023/10/21 00:06:41;;;;;;;58.08;16.33;;;;;;;7.99;100.00;98296.81;6129702;28;20480;-71
2023/10/21 00:09:36;;;;;;;79.97;16.97;;;;;;;7.98;100.00;98297.00;6133655;28;20027;-70
2023/10/21 00:12:33;;;;;;;78.27;19.13;;;;;;;7.96;100.00;98294.59;6129084;28;20036;-71
2023/10/21 00:15:28;;;;;;;65.80;16.23;;;;;;;7.95;100.00;98278.91;6123530;28;20036;-71
2023/10/21 00:18:25;;;;;;;103.60;17.83;;;;;;;7.94;100.00;98293.94;6120948;28;20048;-71
2023/10/21 00:21:21;;;;;;;83.32;18.17;;;;;;;7.94;100.00;98298.38;6107056;28;20308;-72
2023/10/21 00:24:16;;;;;;;108.13;18.90;;;;;;;7.95;100.00;98308.78;6121855;28;20028;-72
2023/10/21 00:27:11;;;;;;;106.77;16.70;;;;;;;7.96;100.00;98318.31;6121732;28;20572;-74
2023/10/21 00:30:07;;;;;;;67.33;16.67;;;;;;;7.97;100.00;98319.94;6121511;28;20040;-72
2023/10/21 00:33:03;;;;;;;103.53;19.00;;;;;;;7.93;100.00;98329.25;6121259;28;20259;-71
2023/10/21 00:35:59;;;;;;;77.18;17.45;;;;;;;7.92;100.00;98322.34;6121185;28;20025;-71
2023/10/21 00:38:54;;;;;;;85.35;16.85;;;;;;;7.93;100.00;98320.50;6121160;28;20491;-71
2023/10/21 00:41:50;;;;;;;117.03;20.37;;;;;;;7.82;100.00;98308.66;6120812;28;20024;-71
2023/10/21 00:44:45;;;;;;;121.90;19.33;;;;;;;7.86;100.00;98324.88;6121334;28;20031;-71
2023/10/21 00:47:41;;;;;;;133.87;20.80;;;;;;;7.82;100.00;98337.66;6121315;28;20384;-71
2023/10/21 00:50:36;;;;;;;104.32;19.40;;;;;;;7.82;100.00;98337.66;6120816;28;20278;-73
2023/10/21 00:53:31;;;;;;;113.20;18.47;;;;;;;7.86;100.00;98346.00;6121346;28;20024;-72
2023/10/21 00:56:27;;;;;;;126.47;17.25;;;;;;;7.85;100.00;98357.56;6121144;28;20464;-72
2023/10/21 00:59:23;;;;;;;109.18;20.17;;;;;;;7.77;100.00;98361.94;6120991;28;20515;-71
2023/10/21 01:02:18;;;;;;;145.27;18.65;;;;;;;7.78;100.00;98358.31;6120486;28;20429;-72
2023/10/21 01:05:15;;;;;;;107.50;19.60;;;;;;;7.80;100.00;98366.03;6106670;28;20111;-72
2023/10/21 01:08:10;;;;;;;116.95;19.55;;;;;;;7.82;100.00;98374.59;6120868;28;20103;-70
2023/10/21 01:11:06;;;;;;;53.43;15.07;;;;;;;7.88;100.00;98384.38;6120560;28;20085;-71
2023/10/21 01:14:02;;;;;;;71.23;17.40;;;;;;;7.85;100.00;98379.50;6121101;28;20034;-72
2023/10/21 01:16:58;;;;;;;101.97;19.40;;;;;;;7.88;100.00;98394.16;6121166;28;20035;-72
2023/10/21 01:19:57;;;;;;;86.00;18.27;;;;;;;7.90;100.00;98392.13;6120942;28;20472;-72
2023/10/21 01:22:55;;;;;;;81.20;18.33;;;;;;;7.85;100.00;98390.06;6120343;28;20025;-71
2023/10/21 01:25:50;;;;;;;86.25;19.90;;;;;;;7.88;100.00;98384.38;6120704;28;20028;-71
2023/10/21 01:28:46;;;;;;;131.07;20.45;;;;;;;7.86;100.00;98381.13;6124967;28;20035;-70
2023/10/21 01:31:41;;;;;;;80.53;17.57;;;;;;;7.93;100.00;98384.66;6129341;28;20043;-73
2023/10/21 01:34:36;;;;;;;77.50;17.37;;;;;;;7.95;100.00;98389.75;6121393;28;20024;-72
2023/10/21 01:37:32;;;;;;;84.20;16.07;;;;;;;7.95;100.00;98385.28;6120302;28;20286;-70
2023/10/21 01:40:27;;;;;;;65.40;16.70;;;;;;;7.95;100.00;98379.19;6120053;28;20029;-72
2023/10/21 01:43:22;;;;;;;72.00;16.57;;;;;;;7.91;100.00;98391.94;6120741;28;20025;-72
2023/10/21 01:46:18;;;;;;;73.30;16.63;;;;;;;7.87;100.00;98397.78;6120560;28;20028;-72
2023/10/21 01:49:13;;;;;;;91.80;17.97;;;;;;;7.80;100.00;98398.50;6120668;28;20261;-73
2023/10/21 01:52:08;;;;;;;110.53;19.33;;;;;;;7.81;100.00;98399.34;6119714;28;20504;-72
2023/10/21 01:55:05;;;;;;;66.90;15.17;;;;;;;7.81;100.00;98394.06;6120450;28;20036;-72
2023/10/21 01:58:00;;;;;;;69.85;17.20;;;;;;;7.75;100.00;98376.31;6120345;28;20116;-72
2023/10/21 02:00:55;;;;;;;118.87;22.03;;;;;;;7.76;100.00;98372.69;6119813;28;20030;-71
2023/10/21 02:03:52;;;;;;;75.83;18.20;;;;;;;7.78;100.00;98379.41;6120585;28;20191;-72
2023/10/21 02:06:47;;;;;;;65.38;17.38;;;;;;;7.77;100.00;98382.25;6120664;28;20068;-71
2023/10/21 02:09:43;;;;;;;109.50;19.73;;;;;;;7.79;100.00;98402.16;6119926;28;20039;-71
2023/10/21 02:12:38;;;;;;;97.13;18.38;;;;;;;7.82;100.00;98397.50;6119968;28;20032;-71
2023/10/21 02:15:36;;;;;;;109.93;19.50;;;;;;;7.81;100.00;98399.34;6120272;28;20036;-72
2023/10/21 02:18:31;;;;;;;113.63;20.58;;;;;;;7.82;100.00;98394.88;6122238;28;20263;-72
2023/10/21 02:21:58;;;;;;;59.87;16.53;;;;;;;7.83;100.00;98392.03;6123985;28;20471;-71
2023/10/21 02:24:54;;;;;;;114.90;19.30;;;;;;;7.81;100.00;98399.34;6120394;28;20037;-72
2023/10/21 02:27:49;;;;;;;72.20;16.08;;;;;;;7.87;100.00;98409.16;6124333;28;20440;-72
2023/10/21 02:30:45;;;;;;;78.83;16.70;;;;;;;7.86;100.00;98401.41;6123862;28;20048;-72
2023/10/21 02:33:40;;;;;;;85.13;17.23;;;;;;;7.88;100.00;98405.50;6124061;28;20028;-71
2023/10/21 02:36:35;;;;;;;88.20;16.53;;;;;;;7.83;100.00;98410.50;6124279;28;20767;-72
2023/10/21 02:39:31;;;;;;;153.60;19.93;;;;;;;7.81;100.00;98404.59;6124136;28;20709;-72
2023/10/21 02:42:26;;;;;;;87.67;18.17;;;;;;;7.80;100.00;98408.25;6123875;28;20579;-72
2023/10/21 02:45:21;;;;;;;58.87;14.17;;;;;;;7.84;100.00;98420.06;6123823;28;20028;-71
2023/10/21 02:48:16;;;;;;;62.30;15.40;;;;;;;7.84;100.00;98420.06;6123830;28;20035;-70
2023/10/21 02:51:17;;;;;;;95.57;21.27;;;;;;;7.82;100.00;98416.81;6123571;28;20062;-72
2023/10/21 02:54:12;;;;;;;50.85;16.08;;;;;;;7.83;100.00;98412.34;6123768;28;20436;-72
2023/10/21 02:57:08;;;;;;;53.73;15.33;;;;;;;7.92;100.00;98424.41;6123818;28;20039;-71
2023/10/21 03:00:05;;;;;;;42.97;14.70;;;;;;;7.89;100.00;98419.50;6123076;28;20749;-73
2023/10/21 03:03:00;;;;;;;37.00;14.30;;;;;;;7.96;100.00;98426.53;6123262;28;20025;-71
2023/10/21 03:05:56;;;;;;;42.50;14.33;;;;;;;7.94;100.00;98420.59;6123401;28;20059;-70
2023/10/21 03:08:51;;;;;;;45.67;16.57;;;;;;;7.92;100.00;98421.78;6123393;28;20024;-71
2023/10/21 03:11:46;;;;;;;41.53;16.67;;;;;;;7.96;100.00;98429.16;6115047;28;20035;-73
2023/10/21 03:14:41;;;;;;;39.77;15.23;;;;;;;7.96;100.00;98434.44;6123273;28;20033;-72
2023/10/21 03:17:37;;;;;;;33.47;13.90;;;;;;;7.98;100.00;98421.88;6122992;28;20035;-71
2023/10/21 03:20:33;;;;;;;31.37;13.87;;;;;;;7.97;100.00;98425.50;6122549;28;20034;-73
2023/10/21 03:23:28;;;;;;;35.95;13.93;;;;;;;7.90;100.00;98419.34;6123087;28;20468;-74
2023/10/21 03:26:24;;;;;;;33.78;12.57;;;;;;;7.94;100.00;98431.16;6123101;28;20029;-78
2023/10/21 03:29:19;;;;;;;40.20;16.13;;;;;;;7.98;100.00;98427.16;6122331;28;20028;-74
2023/10/21 03:32:14;;;;;;;36.90;14.47;;;;;;;7.97;100.00;98430.78;6122673;28;20744;-75
2023/10/21 03:35:10;;;;;;;37.07;14.73;;;;;;;7.93;100.00;98424.25;6122702;28;20067;-73
2023/10/21 03:38:05;;;;;;;37.50;14.47;;;;;;;7.98;100.00;98426.31;6122343;28;20266;-75
2023/10/21 03:41:05;;;;;;;39.73;13.80;;;;;;;7.99;100.00;98434.03;6122380;28;20108;-76
2023/10/21 03:44:00;;;;;;;31.25;13.43;;;;;;;7.98;100.00;98421.88;6119808;28;20036;-74
2023/10/21 03:46:55;;;;;;;31.50;11.57;;;;;;;7.98;100.00;98421.88;6122519;28;20028;-75
2023/10/21 03:49:51;;;;;;;25.25;11.60;;;;;;;8.04;100.00;98429.03;6122221;28;20032;-75
2023/10/21 03:52:46;;;;;;;32.77;12.93;;;;;;;8.01;100.00;98437.34;6122027;28;20047;-75
2023/10/21 03:55:43;;;;;;;33.20;12.83;;;;;;;8.00;100.00;98417.22;6122372;28;20063;-76
2023/10/21 03:58:39;;;;;;;28.42;12.18;;;;;;;8.04;100.00;98415.84;6121758;28;20255;-75
2023/10/21 04:01:35;;;;;;;30.30;12.68;;;;;;;8.07;100.00;98417.28;6121790;28;20037;-75
2023/10/21 04:04:30;;;;;;;34.93;13.47;;;;;;;8.12;100.00;98422.81;6121977;28;20495;-76
2023/10/21 04:07:25;;;;;;;33.67;13.80;;;;;;;8.12;100.00;98407.81;6122514;28;20074;-74
2023/10/21 04:10:21;;;;;;;30.10;12.63;;;;;;;8.15;100.00;98415.34;6122089;28;20029;-75
2023/10/21 04:13:16;;;;;;;29.88;12.13;;;;;;;8.19;100.00;98416.59;6121509;28;20475;-73
2023/10/21 04:16:13;;;;;;;30.17;13.47;;;;;;;8.25;100.00;98428.25;6121964;28;20123;-75
2023/10/21 04:19:08;;;;;;;30.58;12.70;;;;;;;8.24;100.00;98426.59;6121518;28;20118;-72
2023/10/21 04:22:04;;;;;;;27.70;14.02;;;;;;;8.28;100.00;98426.09;6121388;28;20032;-73
2023/10/21 04:25:00;;;;;;;28.40;12.10;;;;;;;8.33;100.00;98423.69;6121666;28;20035;-74
2023/10/21 04:27:56;;;;;;;28.42;13.05;;;;;;;8.35;100.00;98424.31;6121513;28;20111;-72
2023/10/21 04:30:51;;;;;;;32.75;13.10;;;;;;;8.34;100.00;98437.72;6118237;28;20028;-72
2023/10/21 04:33:46;;;;;;;31.30;13.23;;;;;;;8.46;100.00;98430.91;6121364;28;20442;-73
2023/10/21 04:36:42;;;;;;;28.52;13.88;;;;;;;8.46;100.00;98435.38;6121457;28;20286;-73
2023/10/21 04:39:37;;;;;;;33.27;14.07;;;;;;;8.53;100.00;98431.00;6120983;28;20034;-74
2023/10/21 04:42:32;;;;;;;31.97;13.17;;;;;;;8.59;100.00;98419.69;6120362;28;20032;-75
2023/10/21 04:45:28;;;;;;;34.47;13.47;;;;;;;8.59;100.00;98419.69;6121313;28;20028;-75
2023/10/21 04:48:23;;;;;;;35.07;14.13;;;;;;;8.57;100.00;98427.78;6121079;28;20476;-74
2023/10/21 04:51:19;;;;;;;36.07;14.50;;;;;;;8.59;100.00;98432.88;6121127;28;20033;-74
2023/10/21 04:54:14;;;;;;;31.20;13.02;;;;;;;8.59;100.00;98430.25;6121051;28;20024;-73
2023/10/21 04:57:11;;;;;;;32.43;12.53;;;;;;;8.62;100.00;98441.22;6120814;28;20090;-75
2023/10/21 05:00:08;;;;;;;35.83;14.23;;;;;;;8.62;100.00;98435.13;6121275;28;20032;-73
2023/10/21 05:03:03;;;;;;;32.65;14.20;;;;;;;8.63;100.00;98431.47;6120473;28;20035;-72
2023/10/21 05:05:59;;;;;;;34.93;13.27;;;;;;;8.65;100.00;98437.38;6122511;28;20468;-74
2023/10/21 05:08:54;;;;;;;29.47;12.70;;;;;;;8.55;100.00;98421.88;6126809;28;20431;-72
2023/10/21 05:11:49;;;;;;;33.93;13.03;;;;;;;8.67;100.00;98432.75;6119519;28;20293;-72
2023/10/21 05:14:45;;;;;;;36.53;14.00;;;;;;;8.70;100.00;98438.44;6120671;28;20266;-72
2023/10/21 05:17:41;;;;;;;35.22;14.70;;;;;;;8.72;100.00;98454.13;6120268;28;20033;-72
2023/10/21 05:20:36;;;;;;;36.47;14.20;;;;;;;8.72;100.00;98449.66;6119452;28;20446;-73
2023/10/21 05:23:32;;;;;;;34.70;13.98;;;;;;;8.74;100.00;98454.75;6104434;28;20032;-73
2023/10/21 05:26:28;;;;;;;29.50;12.70;;;;;;;8.77;100.00;98459.66;6121226;28;20071;-72
2023/10/21 05:29:23;;;;;;;31.35;13.15;;;;;;;8.74;100.00;98465.31;6126786;28;20032;-72
2023/10/21 05:32:18;;;;;;;26.60;11.73;;;;;;;8.82;100.00;98473.13;6120233;28;20043;-72
2023/10/21 05:35:14;;;;;;;28.77;11.93;;;;;;;8.84;100.00;98482.50;6120733;28;20024;-72
2023/10/21 05:38:09;;;;;;;31.73;12.93;;;;;;;8.83;100.00;98490.63;6120614;28;20111;-72
2023/10/21 05:41:04;;;;;;;27.87;12.50;;;;;;;8.82;100.00;98492.44;6120370;28;20426;-72
2023/10/21 05:44:00;;;;;;;35.10;14.63;;;;;;;8.80;100.00;98493.63;6120687;28;20604;-71
2023/10/21 05:46:55;;;;;;;25.87;11.23;;;;;;;8.86;100.00;98495.50;6127071;28;20043;-70
2023/10/21 05:49:50;;;;;;;27.47;12.53;;;;;;;8.86;100.00;98500.78;6126956;28;20034;-72
2023/10/21 05:52:46;;;;;;;27.47;12.83;;;;;;;8.88;100.00;98504.06;6132931;28;20033;-72
2023/10/21 05:55:42;;;;;;;24.65;11.55;;;;;;;8.92;100.00;98513.25;6126550;28;20508;-73
2023/10/21 05:58:37;;;;;;;27.17;11.63;;;;;;;8.91;100.00;98514.28;6123112;28;20503;-73
2023/10/21 06:01:32;;;;;;;24.27;11.20;;;;;;;8.96;100.00;98520.63;6124323;28;20501;-72
2023/10/21 06:04:28;;;;;;;30.73;12.27;;;;;;;9.02;100.00;98536.72;6123843;28;20031;-72
2023/10/21 06:07:23;;;;;;;24.83;11.73;;;;;;;9.01;100.00;98524.50;6124293;28;20259;-73
2023/10/21 06:10:20;;;;;;;28.23;12.87;;;;;;;9.00;100.00;98531.63;6131530;28;20103;-72
2023/10/21 06:13:15;;;;;;;27.83;11.73;;;;;;;9.02;100.00;98532.28;6130093;28;20062;-72
2023/10/21 06:16:10;;;;;;;26.45;12.77;;;;;;;9.05;100.00;98534.50;6124563;28;20033;-72
2023/10/21 06:19:06;;;;;;;26.13;12.43;;;;;;;9.12;100.00;98548.63;6123737;28;20070;-71
2023/10/21 06:22:02;;;;;;;28.23;12.03;;;;;;;9.13;100.00;98539.66;6123875;28;20032;-71
2023/10/21 06:24:58;;;;;;;30.73;12.43;;;;;;;9.20;100.00;98551.13;6123193;28;20629;-72
2023/10/21 06:27:53;;;;;;;29.60;13.57;;;;;;;9.23;100.00;98556.03;6135832;28;20063;-73
2023/10/21 06:30:48;;;;;;;28.37;12.07;;;;;;;9.24;100.00;98557.66;6131132;28;20115;-72
2023/10/21 06:33:44;;;;;;;25.30;12.23;;;;;;;9.32;100.00;98565.47;6127911;28;20518;-72
2023/10/21 06:36:39;;;;;;;25.42;11.57;;;;;;;9.30;100.00;98559.56;6132322;28;20044;-73
2023/10/21 06:39:35;;;;;;;30.70;13.07;;;;;;;9.41;100.00;98566.97;6127568;28;20043;-72
2023/10/21 06:42:30;;;;;;;30.53;12.70;;;;;;;9.46;100.00;98577.78;6111030;28;20028;-71
2023/10/21 06:45:25;;;;;;;26.00;13.10;;;;;;;9.49;100.00;98577.41;6125237;28;20837;-71
2023/10/21 06:48:21;;;;;;;28.87;13.07;;;;;;;9.56;100.00;98583.59;6123045;28;20298;-73
2023/10/21 06:51:17;;;;;;;28.08;12.13;;;;;;;9.53;100.00;98578.69;6126886;28;20772;-71
2023/10/21 06:54:12;;;;;;;26.37;12.13;;;;;;;9.59;100.00;98593.75;6123933;28;20036;-71
2023/10/21 06:57:07;;;;;;;22.60;11.07;;;;;;;9.69;100.00;98592.63;6124630;28;20032;-72
2023/10/21 07:00:04;;;;;;;23.17;10.77;;;;;;;9.77;100.00;98605.72;6129489;28;20024;-72
2023/10/21 07:02:59;;;;;;;24.17;9.90;;;;;;;9.82;100.00;98598.00;6125232;28;20025;-72
2023/10/21 07:05:54;;;;;;;20.33;9.80;;;;;;;9.91;100.00;98613.56;6124763;28;20085;-73
2023/10/21 07:08:50;;;;;;;24.03;10.30;;;;;;;9.90;100.00;98616.38;6122385;28;20266;-73
2023/10/21 07:11:45;;;;;;;19.60;10.43;;;;;;;9.94;100.00;98607.06;6124418;28;20071;-71
2023/10/21 07:14:40;;;;;;;23.83;11.35;;;;;;;10.03;100.00;98627.06;6123097;28;20044;-71
2023/10/21 07:17:36;;;;;;;20.93;10.37;;;;;;;9.95;100.00;98629.84;6108850;28;20669;-72
2023/10/21 07:20:32;;;;;;;18.85;10.25;;;;;;;10.02;100.00;98641.34;6121228;28;20404;-73
2023/10/21 07:23:27;;;;;;;26.40;10.77;;;;;;;9.99;100.00;98647.00;6120108;28;20033;-72
2023/10/21 07:26:22;;;;;;;28.63;11.38;;;;;;;10.03;100.00;98640.31;6128721;28;20094;-73
2023/10/21 07:29:18;;;;;;;27.67;11.53;;;;;;;10.03;100.00;98637.66;6122112;28;20052;-71
2023/10/21 07:32:13;;;;;;;24.90;12.70;;;;;;;10.10;100.00;98657.06;6125770;28;20085;-74
2023/10/21 07:35:09;;;;;;;31.33;13.60;;;;;;;10.16;100.00;98666.94;6121706;28;20492;-72
2023/10/21 07:38:05;;;;;;;27.33;12.48;;;;;;;10.22;100.00;98662.69;6127488;28;20523;-73
2023/10/21 07:41:00;;;;;;;24.58;12.35;;;;;;;10.22;100.00;98670.63;6120847;28;20037;-74
2023/10/21 07:43:55;;;;;;;25.83;12.40;;;;;;;10.15;100.00;98667.94;6111238;28;20033;-74
2023/10/21 07:46:51;;;;;;;22.27;11.37;;;;;;;10.08;100.00;98667.03;6129947;28;20020;-76
2023/10/21 07:49:46;;;;;;;28.43;12.13;;;;;;;10.12;100.00;98682.38;6122927;28;20386;-72
2023/10/21 07:52:41;;;;;;;23.27;11.30;;;;;;;10.10;100.00;98691.50;6125060;28;20039;-73
2023/10/21 07:55:37;;;;;;;27.67;11.87;;;;;;;10.14;100.00;98692.75;6123228;28;20036;-73
2023/10/21 07:58:32;;;;;;;25.93;12.50;;;;;;;10.18;100.00;98712.56;6121842;28;20017;-75
2023/10/21 08:01:28;;;;;;;26.20;12.85;;;;;;;10.11;100.00;98709.00;6121776;28;20024;-74
2023/10/21 08:04:23;;;;;;;28.58;12.35;;;;;;;10.14;100.00;98714.78;6121841;28;20070;-74
2023/10/21 08:07:19;;;;;;;26.50;12.00;;;;;;;10.21;100.00;98738.69;6131820;28;20097;-74
2023/10/21 08:10:15;;;;;;;23.80;11.75;;;;;;;10.14;100.00;98735.13;6131286;28;20367;-74
2023/10/21 08:13:10;;;;;;;28.47;12.67;;;;;;;10.23;100.00;98743.78;6121752;28;20123;-75
2023/10/21 08:16:05;;;;;;;29.53;12.13;;;;;;;10.21;100.00;98751.91;6121978;28;20029;-75
2023/10/21 08:19:00;;;;;;;28.30;12.73;;;;;;;10.21;100.00;98762.50;6120954;28;20434;-74
2023/10/21 08:21:56;;;;;;;29.30;12.83;;;;;;;10.22;100.00;98768.63;6120062;28;20302;-74
2023/10/21 08:25:01;;;;;;;28.48;13.05;;;;;;;10.16;100.00;98756.97;6121387;28;20806;-75
2023/10/21 08:27:56;;;;;;;29.60;13.60;;;;;;;10.25;100.00;98778.81;6123938;28;20380;-77
2023/10/21 08:30:52;;;;;;;29.97;13.33;;;;;;;10.27;100.00;98776.81;6119521;28;20068;-76
2023/10/21 08:33:47;;;;;;;33.40;13.87;;;;;;;10.34;100.00;98778.50;6120828;28;20028;-75
2023/10/21 08:36:42;;;;;;;31.93;12.87;;;;;;;10.46;100.00;98792.84;6121552;28;20032;-75
2023/10/21 08:39:38;;;;;;;30.80;13.40;;;;;;;10.43;100.00;98801.22;6120633;28;20132;-75
2023/10/21 08:42:33;;;;;;;31.03;12.30;;;;;;;10.47;100.00;98809.56;6121074;28;20291;-75
2023/10/21 08:45:30;;;;;;;30.00;13.27;;;;;;;10.59;100.00;98818.66;6122564;28;20309;-74
2023/10/21 08:48:27;;;;;;;33.25;13.15;;;;;;;10.65;100.00;98818.69;6123664;28;20282;-76
2023/10/21 08:51:25;;;;;;;26.15;12.52;;;;;;;10.79;100.00;98837.34;6108609;28;20438;-74
2023/10/21 08:54:20;;;;;;;24.45;11.73;;;;;;;10.96;100.00;98825.41;6120530;28;20074;-75
2023/10/21 08:57:16;;;;;;;24.67;11.00;;;;;;;11.23;100.00;98851.91;6126000;28;20442;-75
2023/10/21 09:00:12;;;;;;;21.05;9.57;;;;;;;11.25;100.00;98838.47;6120682;28;20041;-73
2023/10/21 09:03:09;;;;;;;20.58;10.35;;;;;;;11.57;100.00;98847.59;6121344;28;20025;-74
2023/10/21 09:06:06;;;;;;;12.15;6.45;;;;;;;11.78;100.00;98853.63;6123505;28;20111;-72
2023/10/21 09:09:04;;;;;;;13.00;6.75;;;;;;;11.99;100.00;98854.47;6120903;28;20033;-73
2023/10/21 09:12:05;;;;;;;10.30;5.20;;;;;;;12.19;100.00;98861.50;6123030;28;20032;-71
2023/10/21 09:15:00;;;;;;;7.85;3.38;;;;;;;12.39;100.00;98862.31;6119876;28;20383;-73
2023/10/21 09:17:58;;;;;;;4.75;2.33;;;;;;;12.60;100.00;98873.81;6121071;28;20043;-74
2023/10/21 09:20:53;;;;;;;3.75;1.80;;;;;;;12.96;100.00;98901.59;6107406;28;20059;-73
2023/10/21 09:23:50;;;;;;;4.40;2.17;;;;;;;13.47;100.00;98903.63;6117730;28;20028;-73
2023/10/21 09:26:47;;;;;;;2.15;1.40;;;;;;;13.44;100.00;98904.03;6127598;28;20033;-71
2023/10/21 09:29:43;;;;;;;2.92;1.20;;;;;;;13.97;100.00;98910.81;6125578;28;20055;-73
2023/10/21 09:32:38;;;;;;;2.67;1.33;;;;;;;14.56;100.00;98905.19;6109288;28;20029;-73
2023/10/21 09:35:36;;;;;;;5.37;1.40;;;;;;;14.87;100.00;98906.97;6123191;28;20273;-71
2023/10/21 09:38:36;;;;;;;2.05;1.20;;;;;;;15.08;100.00;98914.63;6124422;28;20036;-72
2023/10/21 09:41:31;;;;;;;1.15;0.80;;;;;;;15.31;100.00;98908.66;6124930;28;20031;-71
2023/10/21 09:44:29;;;;;;;2.35;1.38;;;;;;;15.69;100.00;98919.16;6123633;28;20032;-72
2023/10/21 09:47:25;;;;;;;3.53;1.20;;;;;;;15.80;100.00;98913.91;6133871;28;20479;-72
2023/10/21 09:50:20;;;;;;;1.90;1.00;;;;;;;15.75;100.00;98915.59;6106747;28;20035;-70
2023/10/21 09:53:16;;;;;;;1.27;0.70;;;;;;;15.50;100.00;98939.72;6125909;28;20262;-72
2023/10/21 09:56:13;;;;;;;1.80;0.90;;;;;;;15.67;100.00;98931.94;6128291;28;20067;-72
2023/10/21 09:59:09;;;;;;;1.38;0.90;;;;;;;15.82;100.00;98938.53;6122808;28;20041;-70
2023/10/21 10:02:06;;;;;;;2.40;0.75;;;;;;;15.98;100.00;98951.31;6102889;28;20078;-72
2023/10/21 10:05:06;;;;;;;1.73;0.93;;;;;;;16.08;100.00;98945.44;6132562;28;20028;-71
2023/10/21 10:08:04;;;;;;;2.85;0.80;;;;;;;15.85;100.00;98945.28;6122042;28;20119;-71
2023/10/21 10:11:03;;;;;;;2.05;0.90;;;;;;;15.63;100.00;98946.78;6128166;28;20111;-71
2023/10/21 10:14:00;;;;;;;0.75;0.50;;;;;;;15.45;100.00;98953.72;6108169;28;20098;-72
2023/10/21 10:16:56;;;;;;;1.40;0.70;;;;;;;15.65;100.00;98952.72;6104741;28;20129;-73
2023/10/21 10:19:53;;;;;;;1.40;0.75;;;;;;;15.90;100.00;98982.88;6124177;28;20479;-71
2023/10/21 10:22:56;;;;;;;3.50;0.85;;;;;;;16.22;100.00;98976.34;6123874;28;20028;-73
2023/10/21 10:25:57;;;;;;;0.95;0.60;;;;;;;16.72;100.00;98976.09;6124830;28;20028;-73
2023/10/21 10:28:52;;;;;;;4.18;1.35;;;;;;;16.98;100.00;98963.16;6126873;28;20028;-73
2023/10/21 10:31:48;;;;;;;1.20;0.50;;;;;;;17.23;100.00;98966.41;6123740;28;20430;-73
2023/10/21 10:34:53;;;;;;;1.75;0.70;;;;;;;16.88;100.00;98980.78;6123493;28;20052;-72
2023/10/21 10:37:52;;;;;;;2.25;0.80;;;;;;;16.92;100.00;98987.34;6109559;28;20506;-72
2023/10/21 10:40:49;;;;;;;1.63;0.52;;;;;;;17.13;100.00;98984.94;6123784;28;20395;-72
2023/10/21 10:43:46;;;;;;;2.88;0.85;;;;;;;17.05;100.00;98987.94;6114109;28;20024;-72
2023/10/21 10:46:41;;;;;;;2.35;0.73;;;;;;;17.02;100.00;98987.59;6126359;28;20056;-71
2023/10/21 10:49:59;;;;;;;3.20;1.00;;;;;;;16.80;100.00;99010.56;6123849;28;20040;-72
2023/10/21 10:52:55;;;;;;;1.63;0.60;;;;;;;16.61;100.00;98999.91;6123201;28;20039;-73
2023/10/21 10:55:57;;;;;;;0.95;0.45;;;;;;;16.66;100.00;99017.97;6123865;28;20029;-73
2023/10/21 10:58:52;;;;;;;0.80;0.52;;;;;;;16.51;100.00;99023.72;6123271;28;20063;-73
2023/10/21 11:01:57;;;;;;;0.98;0.50;;;;;;;16.54;100.00;99009.91;6123541;28;20099;-73
2023/10/21 11:04:55;;;;;;;1.20;0.50;;;;;;;16.87;100.00;99014.81;6122463;28;20036;-72
2023/10/21 11:07:54;;;;;;;1.10;0.40;;;;;;;16.82;100.00;99022.72;6126458;28;20028;-73
2023/10/21 11:10:53;;;;;;;1.30;0.60;;;;;;;16.92;100.00;99008.75;6124809;28;20118;-72
2023/10/21 11:13:48;;;;;;;1.42;0.43;;;;;;;16.82;100.00;99013.84;6122403;28;20027;-73
2023/10/21 11:16:44;;;;;;;1.87;0.60;;;;;;;16.78;100.00;99023.38;6129208;28;20033;-73
2023/10/21 11:19:40;;;;;;;3.22;0.50;;;;;;;16.80;100.00;99027.47;6119347;28;20032;-72
2023/10/21 11:22:35;;;;;;;1.52;0.60;;;;;;;16.79;100.00;99031.19;6121371;28;20047;-73
2023/10/21 11:25:31;;;;;;;0.70;0.50;;;;;;;16.96;100.00;99039.41;6122482;28;20064;-73
2023/10/21 11:28:26;;;;;;;1.30;0.52;;;;;;;16.94;100.00;99055.69;6126721;28;20036;-72
2023/10/21 11:31:22;;;;;;;2.25;0.50;;;;;;;16.99;100.00;99042.44;6104961;28;20591;-71
2023/10/21 11:34:18;;;;;;;2.95;0.55;;;;;;;17.04;100.00;99044.44;6114290;28;20436;-73
2023/10/21 11:37:14;;;;;;;1.17;1.08;;;;;;;17.17;100.00;99044.22;6135981;28;20111;-72
2023/10/21 11:40:11;;;;;;;1.50;0.57;;;;;;;17.24;100.00;99051.13;6125213;28;20032;-72
2023/10/21 11:43:07;;;;;;;1.85;0.40;;;;;;;17.47;100.00;99066.44;6119659;28;20108;-73
2023/10/21 11:46:05;;;;;;;1.33;0.30;;;;;;;17.25;100.00;99073.38;6109898;28;20040;-73
2023/10/21 11:49:01;;;;;;;1.98;0.68;;;;;;;17.22;100.00;99074.66;6121385;28;20390;-72
2023/10/21 11:51:56;;;;;;;1.03;0.40;;;;;;;17.19;100.00;99060.88;6121147;28;20028;-72
2023/10/21 11:55:21;;;;;;;1.03;0.43;;;;;;;17.06;100.00;99077.97;6122023;28;20051;-73
2023/10/21 11:59:17;;;;;;;3.15;0.80;;;;;;;17.02;100.00;99097.41;6121558;28;20044;-72
2023/10/21 12:10:02;;;;;;;2.78;1.40;;;;;;;16.74;100.00;99110.56;6126723;28;20672;-72
2023/10/21 12:15:00;;;;;;;0.95;0.50;;;;;;;17.02;100.00;99134.88;6116437;28;20402;-73
2023/10/21 12:18:34;;;;;;;0.60;0.40;;;;;;;17.03;100.00;99125.81;6106882;28;20041;-73
2023/10/21 12:31:39;;;;;;;1.67;0.80;;;;;;;16.93;100.00;99155.00;6119393;28;20036;-72
2023/10/21 12:37:51;;;;;;;0.52;0.30;;;;;;;16.91;100.00;99173.13;6125131;28;20035;-73
2023/10/21 12:44:01;;;;;;;0.10;0.10;;;;;;;16.69;95.98;99170.09;6121899;28;20028;-73
2023/10/21 12:46:57;;;;;;;1.65;0.47;;;;;;;16.75;97.68;99176.41;6120925;28;20067;-74
2023/10/21 12:49:55;;;;;;;0.30;0.20;;;;;;;16.67;97.63;99159.63;6119924;28;20472;-73
2023/10/21 12:52:51;;;;;;;0.95;0.10;;;;;;;17.02;97.18;99181.25;6119899;28;20035;-73
2023/10/21 12:55:47;;;;;;;1.15;0.30;;;;;;;17.26;96.54;99168.78;6117387;28;20028;-73
2023/10/21 12:58:42;;;;;;;1.65;0.30;;;;;;;17.28;93.87;99190.81;6089750;28;20048;-73
2023/10/21 13:01:38;;;;;;;1.35;0.10;;;;;;;17.11;93.94;99197.84;6133276;28;20078;-74
2023/10/21 13:04:35;;;;;;;0.30;0.30;;;;;;;16.77;93.13;99196.56;6142204;28;20034;-72
2023/10/21 13:07:31;;;;;;;0.20;0.20;;;;;;;16.50;96.31;99209.41;6131360;28;20124;-74
2023/10/21 13:10:27;;;;;;;0.28;0.10;;;;;;;16.32;94.91;99195.16;6135226;28;20403;-73
2023/10/21 13:13:23;;;;;;;0.90;0.30;;;;;;;16.35;96.42;99197.41;6129899;28;20068;-73
2023/10/21 13:16:18;;;;;;;2.10;0.30;;;;;;;16.33;99.16;99221.72;6136644;28;20047;-74
2023/10/21 13:19:14;;;;;;;0.30;0.30;;;;;;;16.16;100.00;99201.91;6131024;28;20028;-73
2023/10/21 13:22:09;;;;;;;1.35;0.50;;;;;;;16.46;100.00;99229.63;6129092;28;20110;-73
2023/10/21 13:25:07;;;;;;;0.97;0.30;;;;;;;16.71;98.51;99231.47;6127427;28;20057;-74
2023/10/21 13:28:05;;;;;;;0.43;0.25;;;;;;;16.61;98.60;99234.63;6128861;28;20586;-72
2023/10/21 13:31:02;;;;;;;0.77;0.35;;;;;;;16.73;97.63;99234.72;6126987;28;20055;-73
2023/10/21 13:33:57;;;;;;;1.60;0.60;;;;;;;16.87;97.23;99254.97;6113119;28;20032;-73
2023/10/21 13:36:53;;;;;;;0.37;0.37;;;;;;;16.94;87.87;99258.41;6126688;28;20432;-74
2023/10/21 13:39:48;;;;;;;0.73;0.50;;;;;;;16.78;86.76;99267.00;6131958;28;20032;-73
2023/10/21 13:42:45;;;;;;;0.50;0.30;;;;;;;16.75;90.08;99275.47;6126533;28;20024;-74
2023/10/21 13:45:40;;;;;;;1.30;0.22;;;;;;;16.55;87.18;99268.47;6135375;28;20146;-74
2023/10/21 13:48:36;;;;;;;0.83;0.10;;;;;;;16.45;85.07;99273.47;6131282;28;20476;-73
2023/10/21 13:51:31;;;;;;;0.20;0.20;;;;;;;16.40;85.67;99265.28;6135994;28;20040;-72
2023/10/21 13:54:28;;;;;;;0.20;0.20;;;;;;;16.43;86.75;99274.72;6131623;28;20028;-74
2023/10/21 13:57:23;;;;;;;2.22;0.50;;;;;;;16.36;86.75;99277.44;6123625;28;20024;-74
2023/10/21 14:00:35;;;;;;;2.70;1.70;;;;;;;16.26;88.95;99277.13;6123326;28;20044;-73